createdAt,value
2024-01-16T00:00:01.142Z,26.68
2024-01-16T00:01:01.147Z,26.66
2024-01-16T00:02:01.178Z,26.64
2024-01-16T00:03:01.119Z,26.68
2024-01-16T00:04:01.153Z,26.66
2024-01-16T00:05:01.215Z,26.66
2024-01-16T00:06:01.153Z,26.68
2024-01-16T00:07:01.186Z,26.68
2024-01-16T00:08:01.305Z,26.68
2024-01-16T00:09:01.198Z,26.64
2024-01-16T00:10:01.212Z,26.66
2024-01-16T00:11:01.287Z,26.66
2024-01-16T00:12:01.281Z,26.68
2024-01-16T00:13:01.287Z,26.66
2024-01-16T00:14:01.514Z,26.68
2024-01-16T00:15:01.352Z,26.63
2024-01-16T00:16:01.405Z,26.64
2024-01-16T00:17:01.477Z,26.64
2024-01-16T00:18:01.618Z,26.64
2024-01-16T00:19:01.525Z,26.63
2024-01-16T00:20:01.580Z,26.64
2024-01-16T00:21:01.492Z,26.63
2024-01-16T00:22:01.498Z,26.64
2024-01-16T00:23:01.714Z,26.62
2024-01-16T00:24:01.534Z,26.64
2024-01-16T00:25:01.576Z,26.64
2024-01-16T00:26:01.687Z,26.64
2024-01-16T00:27:01.628Z,26.68
2024-01-16T00:28:01.639Z,26.60
2024-01-16T00:29:01.678Z,26.63
2024-01-16T00:30:01.726Z,26.64
2024-01-16T00:31:01.713Z,26.63
2024-01-16T00:32:01.780Z,26.62
2024-01-16T00:33:01.846Z,26.63
2024-01-16T00:34:01.808Z,26.63
2024-01-16T00:35:01.849Z,26.60
2024-01-16T00:36:01.799Z,26.62
2024-01-16T00:37:01.906Z,26.62
2024-01-16T00:38:01.920Z,26.64
2024-01-16T00:39:01.868Z,26.62
2024-01-16T00:40:01.879Z,26.63
2024-01-16T00:41:02.061Z,26.62
2024-01-16T00:42:01.964Z,26.59
2024-01-16T00:43:01.948Z,26.64
2024-01-16T00:44:02.229Z,26.62
2024-01-16T00:45:02.022Z,26.62
2024-01-16T00:46:02.039Z,26.60
2024-01-16T00:47:02.064Z,26.62
2024-01-16T00:48:02.331Z,26.60
2024-01-16T00:49:02.221Z,26.62
2024-01-16T00:50:02.238Z,26.62
2024-01-16T00:51:02.154Z,26.60
2024-01-16T00:52:02.184Z,26.58
2024-01-16T00:53:02.318Z,26.60
2024-01-16T00:54:02.250Z,26.59
2024-01-16T00:55:02.281Z,26.59
2024-01-16T00:56:02.362Z,26.60
2024-01-16T00:57:02.297Z,26.60
2024-01-16T00:58:02.329Z,26.60
2024-01-16T00:59:02.392Z,26.60
2024-01-16T01:00:02.395Z,26.60
2024-01-16T01:01:02.557Z,26.60
2024-01-16T01:02:02.481Z,26.63
2024-01-16T01:03:02.490Z,26.62
2024-01-16T01:04:02.576Z,26.58
2024-01-16T01:05:02.575Z,26.60
2024-01-16T01:06:02.730Z,26.59
2024-01-16T01:07:02.589Z,26.59
2024-01-16T01:08:02.633Z,26.60
2024-01-16T01:09:02.594Z,26.59
2024-01-16T01:10:02.681Z,26.59
2024-01-16T01:11:02.796Z,26.60
2024-01-16T01:12:02.707Z,26.58
2024-01-16T01:13:02.729Z,26.59
2024-01-16T01:14:02.802Z,26.56
2024-01-16T01:15:02.905Z,26.56
2024-01-16T01:16:02.800Z,26.58
2024-01-16T01:17:02.916Z,26.56
2024-01-16T01:18:03.229Z,26.58
2024-01-16T01:19:02.934Z,26.56
2024-01-16T01:20:02.998Z,26.56
2024-01-16T01:21:02.928Z,26.59
2024-01-16T01:22:02.994Z,26.55
2024-01-16T01:23:03.023Z,26.58
2024-01-16T01:24:03.009Z,26.58
2024-01-16T01:25:03.079Z,26.58
2024-01-16T01:26:03.121Z,26.56
2024-01-16T01:27:03.125Z,26.60
2024-01-16T01:28:03.137Z,26.56
2024-01-16T01:29:03.150Z,26.53
2024-01-16T01:30:03.206Z,26.55
2024-01-16T01:31:03.295Z,26.56
2024-01-16T01:32:03.276Z,26.55
2024-01-16T01:33:03.441Z,26.56
2024-01-16T01:34:03.405Z,26.58
2024-01-16T01:35:03.390Z,26.56
2024-01-16T01:36:03.394Z,26.55
2024-01-16T01:37:03.391Z,26.56
2024-01-16T01:38:03.443Z,26.53
2024-01-16T01:39:03.467Z,26.55
2024-01-16T01:40:03.518Z,26.56
2024-01-16T01:41:05.589Z,26.53
2024-01-16T01:42:03.594Z,26.56
2024-01-16T01:43:03.529Z,26.53
2024-01-16T01:44:03.548Z,26.53
2024-01-16T01:45:03.501Z,26.53
2024-01-16T01:46:03.503Z,26.55
2024-01-16T01:47:03.545Z,26.53
2024-01-16T01:48:03.656Z,26.52
2024-01-16T01:49:03.627Z,26.55
2024-01-16T01:50:03.541Z,26.52
2024-01-16T01:51:03.532Z,26.53
2024-01-16T01:52:03.571Z,26.53
2024-01-16T01:53:03.578Z,26.52
2024-01-16T01:54:03.558Z,26.52
2024-01-16T01:55:03.502Z,26.52
2024-01-16T01:56:03.525Z,26.52
2024-01-16T01:57:03.523Z,26.52
2024-01-16T01:58:03.528Z,26.52
2024-01-16T01:59:03.640Z,26.50
2024-01-16T02:00:03.609Z,26.49
2024-01-16T02:01:03.622Z,26.52
2024-01-16T02:02:03.605Z,26.50
2024-01-16T02:03:03.545Z,26.52
2024-01-16T02:04:03.580Z,26.52
2024-01-16T02:05:03.634Z,26.52
2024-01-16T02:06:03.704Z,26.53
2024-01-16T02:07:03.540Z,26.50
2024-01-16T02:08:03.512Z,26.52
2024-01-16T02:09:03.547Z,26.52
2024-01-16T02:10:03.562Z,26.50
2024-01-16T02:11:03.525Z,26.52
2024-01-16T02:12:03.506Z,26.50
2024-01-16T02:13:03.524Z,26.50
2024-01-16T02:14:03.579Z,26.49
2024-01-16T02:15:03.527Z,26.52
2024-01-16T02:16:03.548Z,26.50
2024-01-16T02:17:03.571Z,26.50
2024-01-16T02:18:03.599Z,26.52
2024-01-16T02:19:03.578Z,26.52
2024-01-16T02:20:03.597Z,26.50
2024-01-16T02:21:03.521Z,26.49
2024-01-16T02:22:03.517Z,26.49
2024-01-16T02:23:03.604Z,26.48
2024-01-16T02:24:03.538Z,26.50
2024-01-16T02:25:03.558Z,26.48
2024-01-16T02:26:03.559Z,26.48
2024-01-16T02:27:03.594Z,26.46
2024-01-16T02:28:03.515Z,26.48
2024-01-16T02:29:03.553Z,26.49
2024-01-16T02:30:03.518Z,26.49
2024-01-16T02:31:03.554Z,26.46
2024-01-16T02:32:03.608Z,26.49
2024-01-16T02:33:03.786Z,26.48
2024-01-16T02:34:03.668Z,26.46
2024-01-16T02:35:03.602Z,26.46
2024-01-16T02:36:03.568Z,26.49
2024-01-16T02:37:03.524Z,26.48
2024-01-16T02:38:03.549Z,26.46
2024-01-16T02:39:03.537Z,26.48
2024-01-16T02:40:03.601Z,26.45
2024-01-16T02:41:03.575Z,26.46
2024-01-16T02:42:03.564Z,26.46
2024-01-16T02:43:03.569Z,26.45
2024-01-16T02:44:03.661Z,26.46
2024-01-16T02:45:03.634Z,26.45
2024-01-16T02:46:03.677Z,26.48
2024-01-16T02:47:03.798Z,26.46
2024-01-16T02:48:03.910Z,26.45
2024-01-16T02:49:03.807Z,26.45
2024-01-16T02:50:03.958Z,26.48
2024-01-16T02:51:03.884Z,26.45
2024-01-16T02:52:03.957Z,26.46
2024-01-16T02:53:04.087Z,26.45
2024-01-16T02:54:04.008Z,26.46
2024-01-16T02:55:04.024Z,26.45
2024-01-16T02:56:04.099Z,26.43
2024-01-16T02:57:04.141Z,26.43
2024-01-16T02:58:04.189Z,26.45
2024-01-16T02:59:04.259Z,26.43
2024-01-16T03:00:04.256Z,26.45
2024-01-16T03:01:04.304Z,26.46
2024-01-16T03:02:04.314Z,26.43
2024-01-16T03:03:04.568Z,26.40
2024-01-16T03:04:04.390Z,26.42
2024-01-16T03:05:04.530Z,26.45
2024-01-16T03:06:04.610Z,26.45
2024-01-16T03:07:04.526Z,26.45
2024-01-16T03:08:04.631Z,26.45
2024-01-16T03:09:04.587Z,26.40
2024-01-16T03:10:04.663Z,26.43
2024-01-16T03:11:04.734Z,26.45
2024-01-16T03:12:04.802Z,26.43
2024-01-16T03:13:04.770Z,26.45
2024-01-16T03:14:04.839Z,26.45
2024-01-16T03:15:04.940Z,26.45
2024-01-16T03:16:04.935Z,26.43
2024-01-16T03:17:05.073Z,26.45
2024-01-16T03:18:05.145Z,26.43
2024-01-16T03:19:05.076Z,26.43
2024-01-16T03:20:05.108Z,26.43
2024-01-16T03:21:05.178Z,26.42
2024-01-16T03:22:05.128Z,26.43
2024-01-16T03:23:05.301Z,26.43
2024-01-16T03:24:05.371Z,26.45
2024-01-16T03:25:05.260Z,26.43
2024-01-16T03:26:05.449Z,26.43
2024-01-16T03:27:05.317Z,26.40
2024-01-16T03:28:05.438Z,26.42
2024-01-16T03:29:05.471Z,26.40
2024-01-16T03:30:05.650Z,26.42
2024-01-16T03:31:05.582Z,26.40
2024-01-16T03:32:05.633Z,26.43
2024-01-16T03:33:05.639Z,26.42
2024-01-16T03:34:05.695Z,26.43
2024-01-16T03:35:05.666Z,26.42
2024-01-16T03:36:05.687Z,26.39
2024-01-16T03:37:05.824Z,26.40
2024-01-16T03:38:05.819Z,26.39
2024-01-16T03:39:05.820Z,26.38
2024-01-16T03:40:06.022Z,26.40
2024-01-16T03:41:05.975Z,26.40
2024-01-16T03:42:05.953Z,26.38
2024-01-16T03:43:06.057Z,26.40
2024-01-16T03:44:06.081Z,26.38
2024-01-16T03:45:06.065Z,26.39
2024-01-16T03:46:06.137Z,26.39
2024-01-16T03:47:06.166Z,26.38
2024-01-16T03:48:06.558Z,26.38
2024-01-16T03:49:06.358Z,26.40
2024-01-16T03:50:06.388Z,26.39
2024-01-16T03:51:06.370Z,26.38
2024-01-16T03:52:06.434Z,26.38
2024-01-16T03:53:06.488Z,26.38
2024-01-16T03:54:06.478Z,26.36
2024-01-16T03:55:06.546Z,26.38
2024-01-16T03:56:06.599Z,26.38
2024-01-16T03:57:06.612Z,26.39
2024-01-16T03:58:06.665Z,26.38
2024-01-16T03:59:06.712Z,26.40
2024-01-16T04:00:06.781Z,26.39
2024-01-16T04:01:06.848Z,26.36
2024-01-16T04:02:06.888Z,26.38
2024-01-16T04:03:06.904Z,26.36
2024-01-16T04:04:06.950Z,26.36
2024-01-16T04:05:07.021Z,26.36
2024-01-16T04:06:07.209Z,26.35
2024-01-16T04:07:07.059Z,26.36
2024-01-16T04:08:07.056Z,26.36
2024-01-16T04:09:07.135Z,26.38
2024-01-16T04:10:07.259Z,26.36
2024-01-16T04:11:07.240Z,26.38
2024-01-16T04:12:07.278Z,26.36
2024-01-16T04:13:07.351Z,26.38
2024-01-16T04:14:07.328Z,26.38
2024-01-16T04:15:07.441Z,26.38
2024-01-16T04:16:07.393Z,26.35
2024-01-16T04:17:07.655Z,26.36
2024-01-16T04:18:07.585Z,26.36
2024-01-16T04:19:07.708Z,26.36
2024-01-16T04:20:07.612Z,26.38
2024-01-16T04:21:07.643Z,26.36
2024-01-16T04:22:07.705Z,26.36
2024-01-16T04:23:07.721Z,26.35
2024-01-16T04:24:07.768Z,26.36
2024-01-16T04:25:07.759Z,26.35
2024-01-16T04:26:07.850Z,26.35
2024-01-16T04:27:07.908Z,26.35
2024-01-16T04:28:07.942Z,26.34
2024-01-16T04:29:07.995Z,26.35
2024-01-16T04:30:08.046Z,26.34
2024-01-16T04:31:08.134Z,26.34
2024-01-16T04:32:15.496Z,26.32
2024-01-16T04:33:15.530Z,26.32
2024-01-16T04:34:15.493Z,26.32
2024-01-16T04:35:15.412Z,26.34
2024-01-16T04:36:15.413Z,26.31
2024-01-16T04:37:15.436Z,26.36
2024-01-16T04:38:15.435Z,26.31
2024-01-16T04:39:15.438Z,26.32
2024-01-16T04:40:15.397Z,26.36
2024-01-16T04:41:15.463Z,26.34
2024-01-16T04:42:15.416Z,26.35
2024-01-16T04:43:15.420Z,26.32
2024-01-16T04:44:15.448Z,26.34
2024-01-16T04:45:15.437Z,26.34
2024-01-16T04:46:15.428Z,26.31
2024-01-16T04:47:15.453Z,26.34
2024-01-16T04:48:15.493Z,26.34
2024-01-16T04:49:15.483Z,26.34
2024-01-16T04:50:15.462Z,26.31
2024-01-16T04:51:15.407Z,26.32
2024-01-16T04:52:15.438Z,26.32
2024-01-16T04:53:15.441Z,26.32
2024-01-16T04:54:15.452Z,26.31
2024-01-16T04:55:15.451Z,26.31
2024-01-16T04:56:15.477Z,26.32
2024-01-16T04:57:15.463Z,26.31
2024-01-16T04:58:15.421Z,26.31
2024-01-16T04:59:17.209Z,26.32
2024-01-16T05:00:15.420Z,26.29
2024-01-16T05:01:15.542Z,26.29
2024-01-16T05:02:15.661Z,26.31
2024-01-16T05:03:15.597Z,26.31
2024-01-16T05:04:15.625Z,26.31
2024-01-16T05:05:15.689Z,26.32
2024-01-16T05:06:15.825Z,26.31
2024-01-16T05:07:15.740Z,26.29
2024-01-16T05:08:15.854Z,26.28
2024-01-16T05:09:15.892Z,26.34
2024-01-16T05:10:15.907Z,26.31
2024-01-16T05:11:15.962Z,26.29
2024-01-16T05:12:16.022Z,26.31
2024-01-16T05:13:16.051Z,26.31
2024-01-16T05:14:16.183Z,26.35
2024-01-16T05:15:16.158Z,26.32
2024-01-16T05:16:16.158Z,26.34
2024-01-16T05:17:16.196Z,26.32
2024-01-16T05:18:16.430Z,26.34
2024-01-16T05:19:16.480Z,26.32
2024-01-16T05:20:16.370Z,26.31
2024-01-16T05:21:16.372Z,26.32
2024-01-16T05:22:16.394Z,26.31
2024-01-16T05:23:16.502Z,26.29
2024-01-16T05:24:16.499Z,26.29
2024-01-16T05:25:16.545Z,26.27
2024-01-16T05:26:16.675Z,26.27
2024-01-16T05:27:16.598Z,26.28
2024-01-16T05:28:16.714Z,26.27
2024-01-16T05:29:16.771Z,26.28
2024-01-16T05:30:16.825Z,26.25
2024-01-16T05:31:16.842Z,26.25
2024-01-16T05:32:16.838Z,26.24
2024-01-16T05:33:17.230Z,26.22
2024-01-16T05:34:17.011Z,26.25
2024-01-16T05:35:17.046Z,26.24
2024-01-16T05:36:17.063Z,26.24
2024-01-16T05:37:17.114Z,26.25
2024-01-16T05:38:17.158Z,26.24
2024-01-16T05:39:17.166Z,26.22
2024-01-16T05:40:17.191Z,26.24
2024-01-16T05:41:17.337Z,26.27
2024-01-16T05:42:17.302Z,26.24
2024-01-16T05:43:17.368Z,26.25
2024-01-16T05:44:17.493Z,26.22
2024-01-16T05:45:17.478Z,26.24
2024-01-16T05:46:17.487Z,26.24
2024-01-16T05:47:17.569Z,26.24
2024-01-16T05:48:17.686Z,26.24
2024-01-16T05:49:17.677Z,26.25
2024-01-16T05:50:17.801Z,26.24
2024-01-16T05:51:17.900Z,26.24
2024-01-16T05:52:17.789Z,26.22
2024-01-16T05:53:17.843Z,26.22
2024-01-16T05:54:17.850Z,26.24
2024-01-16T05:55:17.954Z,26.24
2024-01-16T05:56:17.978Z,26.25
2024-01-16T05:57:18.139Z,26.22
2024-01-16T05:58:18.076Z,26.22
2024-01-16T05:59:18.228Z,26.24
2024-01-16T06:00:18.193Z,26.24
2024-01-16T06:01:18.260Z,26.15
2024-01-16T06:02:18.329Z,26.21
2024-01-16T06:03:18.330Z,26.18
2024-01-16T06:04:18.494Z,26.14
2024-01-16T06:05:18.672Z,26.08
2024-01-16T06:06:18.756Z,26.02
2024-01-16T06:07:18.600Z,25.97
2024-01-16T06:08:18.691Z,25.97
2024-01-16T06:09:18.658Z,25.97
2024-01-16T06:10:18.684Z,25.91
2024-01-16T06:11:18.746Z,25.90
2024-01-16T06:12:18.706Z,25.88
2024-01-16T06:13:18.742Z,25.88
2024-01-16T06:14:21.305Z,25.85
2024-01-16T06:15:18.815Z,25.84
2024-01-16T06:16:18.766Z,25.85
2024-01-16T06:17:18.986Z,25.80
2024-01-16T06:18:18.852Z,25.80
2024-01-16T06:19:18.883Z,25.80
2024-01-16T06:20:18.834Z,25.85
2024-01-16T06:21:21.145Z,25.83
2024-01-16T06:22:18.760Z,25.80
2024-01-16T06:23:18.883Z,25.83
2024-01-16T06:24:18.824Z,25.81
2024-01-16T06:25:18.785Z,25.80
2024-01-16T06:26:18.979Z,25.81
2024-01-16T06:27:18.794Z,25.80
2024-01-16T06:28:18.901Z,25.78
2024-01-16T06:29:25.006Z,25.71
2024-01-16T06:30:20.058Z,25.67
2024-01-16T06:31:19.408Z,25.63
2024-01-16T06:32:19.687Z,25.54
2024-01-16T06:33:19.130Z,25.49
2024-01-16T06:34:18.845Z,25.43
2024-01-16T06:35:19.607Z,25.46
2024-01-16T06:36:18.856Z,25.44
2024-01-16T06:37:18.780Z,25.53
2024-01-16T06:38:18.901Z,25.61
2024-01-16T06:39:18.832Z,25.64
2024-01-16T06:40:18.988Z,25.67
2024-01-16T06:41:19.168Z,25.67
2024-01-16T06:42:19.242Z,25.73
2024-01-16T06:43:18.894Z,25.78
2024-01-16T06:44:18.965Z,25.70
2024-01-16T06:45:18.807Z,25.73
2024-01-16T06:46:18.926Z,25.81
2024-01-16T06:47:19.154Z,25.90
2024-01-16T06:48:19.140Z,25.97
2024-01-16T06:49:19.047Z,26.02
2024-01-16T06:50:19.183Z,26.08
2024-01-16T06:51:19.675Z,26.14
2024-01-16T06:52:19.064Z,26.18
2024-01-16T06:53:19.199Z,26.22
2024-01-16T06:54:19.279Z,26.28
2024-01-16T06:55:22.261Z,26.31
2024-01-16T06:56:19.700Z,26.35
2024-01-16T06:57:22.585Z,26.36
2024-01-16T06:58:19.378Z,26.40
2024-01-16T06:59:19.765Z,26.42
2024-01-16T07:00:19.225Z,26.42
2024-01-16T07:01:19.310Z,26.43
2024-01-16T07:02:19.276Z,26.45
2024-01-16T07:03:19.170Z,26.43
2024-01-16T07:04:19.172Z,26.48
2024-01-16T07:05:19.293Z,26.52
2024-01-16T07:06:19.727Z,26.49
2024-01-16T07:07:20.190Z,26.49
2024-01-16T07:08:19.269Z,26.50
2024-01-16T07:09:22.983Z,26.52
2024-01-16T07:10:19.837Z,26.53
2024-01-16T07:11:20.082Z,26.52
2024-01-16T07:12:19.299Z,26.55
2024-01-16T07:13:19.505Z,26.56
2024-01-16T07:14:19.499Z,26.56
2024-01-16T07:15:20.142Z,26.60
2024-01-16T07:16:19.353Z,26.60
2024-01-16T07:17:21.190Z,26.59
2024-01-16T07:18:19.618Z,26.63
2024-01-16T07:19:19.256Z,26.64
2024-01-16T07:20:19.817Z,26.64
2024-01-16T07:21:19.385Z,26.63
2024-01-16T07:22:19.680Z,26.66
2024-01-16T07:23:19.280Z,26.66
2024-01-16T07:24:19.174Z,26.66
2024-01-16T07:25:19.278Z,26.69
2024-01-16T07:26:19.254Z,26.70
2024-01-16T07:27:19.814Z,26.72
2024-01-16T07:28:19.306Z,26.70
2024-01-16T07:29:19.229Z,26.64
2024-01-16T07:30:19.342Z,26.73
2024-01-16T07:31:20.371Z,26.72
2024-01-16T07:32:20.222Z,26.75
2024-01-16T07:33:19.350Z,26.75
2024-01-16T07:34:19.448Z,26.78
2024-01-16T07:35:19.185Z,26.79
2024-01-16T07:36:20.316Z,26.79
2024-01-16T07:37:19.305Z,26.72
2024-01-16T07:38:19.370Z,26.72
2024-01-16T07:39:19.268Z,26.59
2024-01-16T07:40:19.293Z,26.60
2024-01-16T07:41:19.348Z,26.60
2024-01-16T07:42:19.704Z,26.59
2024-01-16T07:43:25.046Z,26.60
2024-01-16T07:44:19.584Z,26.59
2024-01-16T07:45:21.360Z,26.64
2024-01-16T07:46:20.043Z,26.64
2024-01-16T07:47:22.553Z,26.70
2024-01-16T07:48:19.560Z,26.70
2024-01-16T07:49:19.491Z,26.73
2024-01-16T07:50:20.145Z,26.75
2024-01-16T07:51:19.452Z,26.75
2024-01-16T07:52:19.348Z,26.75
2024-01-16T07:53:19.930Z,26.78
2024-01-16T07:54:19.333Z,26.78
2024-01-16T07:55:23.535Z,26.75
2024-01-16T07:56:19.825Z,26.75
2024-01-16T07:57:19.401Z,26.76
2024-01-16T07:58:19.705Z,26.75
2024-01-16T07:59:20.539Z,26.78
2024-01-16T08:00:21.125Z,26.75
2024-01-16T08:01:19.498Z,26.79
2024-01-16T08:02:20.724Z,26.80
2024-01-16T08:03:21.036Z,26.78
2024-01-16T08:04:19.443Z,26.80
2024-01-16T08:05:20.332Z,26.80
2024-01-16T08:06:19.567Z,26.82
2024-01-16T08:07:19.474Z,26.80
2024-01-16T08:08:19.500Z,26.80
2024-01-16T08:09:19.973Z,26.80
2024-01-16T08:10:19.883Z,26.78
2024-01-16T08:11:19.724Z,26.76
2024-01-16T08:12:19.332Z,26.76
2024-01-16T08:13:19.394Z,26.70
2024-01-16T08:14:19.522Z,26.73
2024-01-16T08:15:19.435Z,26.72
2024-01-16T08:16:19.637Z,26.72
2024-01-16T08:17:19.451Z,26.69
2024-01-16T08:18:19.468Z,26.69
2024-01-16T08:19:19.392Z,26.68
2024-01-16T08:20:19.517Z,26.70
2024-01-16T08:21:20.097Z,26.68
2024-01-16T08:22:19.565Z,26.69
2024-01-16T08:23:19.519Z,26.69
2024-01-16T08:24:19.814Z,26.70
2024-01-16T08:25:19.483Z,26.66
2024-01-16T08:26:19.430Z,26.69
2024-01-16T08:27:19.406Z,26.69
2024-01-16T08:28:22.741Z,26.72
2024-01-16T08:29:19.459Z,26.69
2024-01-16T08:30:21.268Z,26.69
2024-01-16T08:31:19.670Z,26.69
2024-01-16T08:32:19.546Z,26.70
2024-01-16T08:33:24.880Z,26.75
2024-01-16T08:34:20.627Z,26.78
2024-01-16T08:35:19.480Z,26.70
2024-01-16T08:36:19.539Z,26.72
2024-01-16T08:37:19.441Z,26.68
2024-01-16T08:38:19.506Z,26.62
2024-01-16T08:39:19.598Z,26.68
2024-01-16T08:40:19.558Z,26.73
2024-01-16T08:41:19.689Z,26.76
2024-01-16T08:42:19.609Z,26.82
2024-01-16T08:43:19.624Z,26.83
2024-01-16T08:44:19.581Z,26.89
2024-01-16T08:45:19.555Z,26.86
2024-01-16T08:46:19.572Z,26.93
2024-01-16T08:47:19.731Z,26.94
2024-01-16T08:48:19.787Z,26.99
2024-01-16T08:49:21.446Z,26.97
2024-01-16T08:50:19.717Z,26.97
2024-01-16T08:51:19.591Z,27.00
2024-01-16T08:52:19.628Z,27.03
2024-01-16T08:53:19.834Z,27.07
2024-01-16T08:54:19.776Z,27.07
2024-01-16T08:55:19.810Z,27.08
2024-01-16T08:56:20.079Z,27.06
2024-01-16T08:57:21.617Z,27.08
2024-01-16T08:58:20.209Z,27.08
2024-01-16T08:59:20.071Z,27.11
2024-01-16T09:00:19.947Z,27.14
2024-01-16T09:01:20.035Z,27.14
2024-01-16T09:02:19.894Z,27.17
2024-01-16T09:03:20.001Z,27.15
2024-01-16T09:04:20.014Z,27.10
2024-01-16T09:05:20.023Z,27.18
2024-01-16T09:06:20.026Z,27.17
2024-01-16T09:07:20.136Z,27.21
2024-01-16T09:08:20.018Z,27.24
2024-01-16T09:09:19.938Z,27.24
2024-01-16T09:10:19.906Z,27.26
2024-01-16T09:11:20.183Z,27.27
2024-01-16T09:12:19.932Z,27.30
2024-01-16T09:13:19.924Z,27.31
2024-01-16T09:14:19.979Z,27.30
2024-01-16T09:15:19.943Z,27.31
2024-01-16T09:16:19.872Z,27.34
2024-01-16T09:17:19.999Z,27.33
2024-01-16T09:18:20.092Z,27.34
2024-01-16T09:19:20.295Z,27.36
2024-01-16T09:20:20.005Z,27.37
2024-01-16T09:21:19.980Z,27.38
2024-01-16T09:22:20.810Z,27.38
2024-01-16T09:23:20.079Z,27.34
2024-01-16T09:24:21.273Z,27.36
2024-01-16T09:25:19.906Z,27.37
2024-01-16T09:26:20.259Z,27.40
2024-01-16T09:27:20.022Z,27.40
2024-01-16T09:28:19.943Z,27.42
2024-01-16T09:29:20.138Z,27.24
2024-01-16T09:30:20.192Z,27.14
2024-01-16T09:31:19.887Z,27.03
2024-01-16T09:32:19.983Z,26.94
2024-01-16T09:33:20.217Z,26.55
2024-01-16T09:34:20.108Z,26.83
2024-01-16T09:35:20.188Z,26.90
2024-01-16T09:36:20.144Z,26.94
2024-01-16T09:37:20.110Z,26.91
2024-01-16T09:38:20.357Z,26.99
2024-01-16T09:39:20.314Z,26.99
2024-01-16T09:40:20.262Z,26.90
2024-01-16T09:41:21.257Z,26.73
2024-01-16T09:42:20.322Z,26.76
2024-01-16T09:43:21.371Z,26.80
2024-01-16T09:44:20.804Z,26.83
2024-01-16T09:45:20.197Z,26.83
2024-01-16T09:46:20.194Z,26.87
2024-01-16T09:47:21.334Z,26.85
2024-01-16T09:48:20.407Z,26.87
2024-01-16T09:49:20.297Z,26.91
2024-01-16T09:50:20.876Z,26.94
2024-01-16T09:51:20.604Z,26.96
2024-01-16T09:52:20.205Z,26.99
2024-01-16T09:53:21.034Z,27.00
2024-01-16T09:54:20.717Z,27.04
2024-01-16T09:55:20.214Z,27.04
2024-01-16T09:56:20.230Z,27.06
2024-01-16T09:57:20.222Z,27.08
2024-01-16T09:58:22.359Z,27.11
2024-01-16T09:59:20.604Z,27.13
2024-01-16T10:00:22.295Z,27.11
2024-01-16T10:01:20.249Z,27.14
2024-01-16T10:02:20.554Z,27.15
2024-01-16T10:03:20.422Z,27.18
2024-01-16T10:04:20.771Z,27.18
2024-01-16T10:05:20.943Z,27.18
2024-01-16T10:06:20.482Z,27.20
2024-01-16T10:07:20.716Z,27.21
2024-01-16T10:08:21.612Z,27.23
2024-01-16T10:09:20.603Z,27.24
2024-01-16T10:10:26.932Z,27.24
2024-01-16T10:11:21.798Z,27.26
2024-01-16T10:12:20.770Z,27.26
2024-01-16T10:13:20.673Z,27.28
2024-01-16T10:14:20.723Z,27.28
2024-01-16T10:15:20.685Z,27.28
2024-01-16T10:16:22.253Z,27.30
2024-01-16T10:17:20.825Z,27.33
2024-01-16T10:18:20.846Z,27.34
2024-01-16T10:19:21.458Z,27.36
2024-01-16T10:20:22.813Z,27.34
2024-01-16T10:21:21.005Z,27.37
2024-01-16T10:22:23.634Z,27.38
2024-01-16T10:23:20.948Z,27.38
2024-01-16T10:24:21.339Z,27.41
2024-01-16T10:25:21.079Z,27.40
2024-01-16T10:26:21.079Z,27.41
2024-01-16T10:27:20.944Z,27.42
2024-01-16T10:28:23.082Z,27.41
2024-01-16T10:29:21.023Z,27.42
2024-01-16T10:30:20.982Z,27.44
2024-01-16T10:31:21.085Z,27.42
2024-01-16T10:32:21.019Z,27.45
2024-01-16T10:33:21.036Z,27.44
2024-01-16T10:34:21.166Z,27.47
2024-01-16T10:35:21.041Z,27.54
2024-01-16T10:36:21.078Z,27.42
2024-01-16T10:37:20.914Z,27.47
2024-01-16T10:38:20.966Z,27.48
2024-01-16T10:39:22.040Z,27.52
2024-01-16T10:40:23.375Z,27.52
2024-01-16T10:41:20.931Z,27.55
2024-01-16T10:42:21.047Z,27.57
2024-01-16T10:43:20.956Z,27.57
2024-01-16T10:44:20.969Z,27.57
2024-01-16T10:45:20.963Z,27.54
2024-01-16T10:46:23.283Z,27.57
2024-01-16T10:47:21.769Z,27.57
2024-01-16T10:48:21.004Z,27.54
2024-01-16T10:49:21.508Z,27.54
2024-01-16T10:50:21.039Z,27.51
2024-01-16T10:51:21.221Z,27.49
2024-01-16T10:52:22.861Z,27.47
2024-01-16T10:53:20.960Z,27.48
2024-01-16T10:54:21.023Z,27.49
2024-01-16T10:55:21.035Z,27.48
2024-01-16T10:56:21.387Z,27.51
2024-01-16T10:57:21.151Z,27.49
2024-01-16T10:58:21.128Z,27.51
2024-01-16T10:59:21.075Z,27.51
2024-01-16T11:00:21.194Z,27.54
2024-01-16T11:01:21.056Z,27.49
2024-01-16T11:02:21.069Z,27.51
2024-01-16T11:03:21.200Z,27.52
2024-01-16T11:04:21.098Z,27.52
2024-01-16T11:05:21.614Z,27.49
2024-01-16T11:06:21.131Z,27.52
2024-01-16T11:07:21.048Z,27.54
2024-01-16T11:08:20.976Z,27.54
2024-01-16T11:09:21.026Z,27.54
2024-01-16T11:10:20.897Z,27.55
2024-01-16T11:11:22.855Z,27.55
2024-01-16T11:12:21.243Z,27.54
2024-01-16T11:13:21.079Z,27.57
2024-01-16T11:14:23.667Z,27.58
2024-01-16T11:15:21.294Z,27.54
2024-01-16T11:16:21.278Z,27.55
2024-01-16T11:17:21.090Z,27.54
2024-01-16T11:18:21.119Z,27.55
2024-01-16T11:19:37.792Z,27.54
2024-01-16T11:20:38.491Z,27.54
2024-01-16T11:21:22.172Z,27.49
2024-01-16T11:22:21.237Z,27.52
2024-01-16T11:23:21.073Z,27.51
2024-01-16T11:24:21.044Z,27.51
2024-01-16T11:25:21.020Z,27.48
2024-01-16T11:26:22.995Z,27.49
2024-01-16T11:27:20.971Z,27.49
2024-01-16T11:28:21.092Z,27.51
2024-01-16T11:29:21.045Z,27.48
2024-01-16T11:30:20.992Z,27.51
2024-01-16T11:31:20.932Z,27.51
2024-01-16T11:32:28.156Z,27.54
2024-01-16T11:33:22.141Z,27.52
2024-01-16T11:34:21.425Z,27.49
2024-01-16T11:35:21.106Z,27.48
2024-01-16T11:36:20.941Z,27.51
2024-01-16T11:37:21.016Z,27.49
2024-01-16T11:38:21.844Z,27.51
2024-01-16T11:39:21.053Z,27.52
2024-01-16T11:40:21.247Z,27.51
2024-01-16T11:41:27.081Z,27.52
2024-01-16T11:42:22.077Z,27.52
2024-01-16T11:43:21.054Z,27.54
2024-01-16T11:44:23.221Z,27.54
2024-01-16T11:45:21.247Z,27.57
2024-01-16T11:46:21.297Z,27.57
2024-01-16T11:47:21.433Z,27.52
2024-01-16T11:48:21.265Z,27.55
2024-01-16T11:49:21.147Z,27.55
2024-01-16T11:50:24.507Z,27.54
2024-01-16T11:51:21.746Z,27.55
2024-01-16T11:52:21.017Z,27.55
2024-01-16T11:53:21.018Z,27.52
2024-01-16T11:54:21.103Z,27.54
2024-01-16T11:55:21.107Z,27.52
2024-01-16T11:56:31.197Z,27.55
2024-01-16T11:57:22.296Z,27.58
2024-01-16T11:58:21.179Z,27.58
2024-01-16T11:59:21.803Z,27.57
2024-01-16T12:00:21.681Z,27.58
2024-01-16T12:01:21.416Z,27.62
2024-01-16T12:02:21.376Z,27.58
2024-01-16T12:03:31.010Z,27.58
2024-01-16T12:04:22.848Z,27.58
2024-01-16T12:05:21.579Z,27.61
2024-01-16T12:06:21.513Z,27.62
2024-01-16T12:07:21.865Z,27.62
2024-01-16T12:08:21.371Z,27.64
2024-01-16T12:09:21.342Z,27.64
2024-01-16T12:10:21.438Z,27.66
2024-01-16T12:11:25.349Z,27.64
2024-01-16T12:12:22.837Z,27.65
2024-01-16T12:13:21.394Z,27.65
2024-01-16T12:14:21.454Z,27.62
2024-01-16T12:15:21.410Z,27.62
2024-01-16T12:16:21.689Z,27.65
2024-01-16T12:17:21.606Z,27.64
2024-01-16T12:18:30.909Z,27.62
2024-01-16T12:19:22.730Z,27.64
2024-01-16T12:20:21.576Z,27.61
2024-01-16T12:21:21.603Z,27.64
2024-01-16T12:22:21.496Z,27.62
2024-01-16T12:23:21.505Z,27.65
2024-01-16T12:24:21.453Z,27.61
2024-01-16T12:25:21.434Z,27.64
2024-01-16T12:26:21.826Z,27.62
2024-01-16T12:27:21.397Z,27.62
2024-01-16T12:28:31.399Z,27.62
2024-01-16T12:29:22.421Z,27.64
2024-01-16T12:30:23.488Z,27.64
2024-01-16T12:31:21.668Z,27.64
2024-01-16T12:32:21.792Z,27.65
2024-01-16T12:33:21.723Z,27.65
2024-01-16T12:34:21.949Z,27.65
2024-01-16T12:35:21.889Z,27.65
2024-01-16T12:36:22.951Z,27.68
2024-01-16T12:37:21.872Z,27.68
2024-01-16T12:38:22.040Z,27.66
2024-01-16T12:39:22.070Z,27.68
2024-01-16T12:40:22.068Z,27.68
2024-01-16T12:41:29.492Z,27.65
2024-01-16T12:42:25.518Z,27.64
2024-01-16T12:43:22.089Z,27.62
2024-01-16T12:44:22.204Z,27.61
2024-01-16T12:45:22.101Z,27.62
2024-01-16T12:46:22.120Z,27.59
2024-01-16T12:47:22.167Z,27.61
2024-01-16T12:48:22.129Z,27.62
2024-01-16T12:49:22.310Z,27.62
2024-01-16T12:50:22.272Z,27.62
2024-01-16T12:51:22.141Z,27.65
2024-01-16T12:52:22.782Z,27.62